createdAt,value
2022-12-20T00:00:52.506Z,7.50
2022-12-20T00:03:20.651Z,5.90
2022-12-20T00:05:48.834Z,5.15
2022-12-20T00:08:16.034Z,5.88
2022-12-20T00:10:45.186Z,6.60
2022-12-20T00:13:12.596Z,6.93
2022-12-20T00:15:39.272Z,6.85
2022-12-20T00:18:06.263Z,7.03
2022-12-20T00:20:33.173Z,7.80
2022-12-20T00:22:59.841Z,7.63
2022-12-20T00:25:26.620Z,9.25
2022-12-20T00:27:53.322Z,7.53
2022-12-20T00:30:20.320Z,8.05
2022-12-20T00:32:47.344Z,10.00
2022-12-20T00:35:14.148Z,9.48
2022-12-20T00:37:40.911Z,8.48
2022-12-20T00:40:08.294Z,7.65
2022-12-20T00:42:34.990Z,7.38
2022-12-20T00:45:01.711Z,7.00
2022-12-20T00:47:28.420Z,6.82
2022-12-20T00:49:55.098Z,7.15
2022-12-20T00:52:22.513Z,7.68
2022-12-20T00:54:49.204Z,9.00
2022-12-20T00:57:15.910Z,10.48
2022-12-20T00:59:42.592Z,8.65
2022-12-20T01:02:09.458Z,6.97
2022-12-20T01:04:36.321Z,8.57
2022-12-20T01:07:03.452Z,9.45
2022-12-20T01:09:30.150Z,9.02
2022-12-20T01:11:56.869Z,9.88
2022-12-20T01:14:23.632Z,8.73
2022-12-20T01:16:50.417Z,8.88
2022-12-20T01:19:18.318Z,8.90
2022-12-20T01:21:45.285Z,7.13
2022-12-20T01:24:16.271Z,8.98
2022-12-20T01:26:43.344Z,10.18
2022-12-20T01:29:10.506Z,11.95
2022-12-20T01:31:37.341Z,8.52
2022-12-20T01:34:04.265Z,6.65
2022-12-20T01:36:34.260Z,5.65
2022-12-20T01:39:06.808Z,3.75
2022-12-20T01:41:35.085Z,3.83
2022-12-20T01:44:25.806Z,3.55
2022-12-20T01:46:53.841Z,3.40
2022-12-20T01:49:24.475Z,3.40
2022-12-20T01:52:06.363Z,3.45
2022-12-20T01:54:38.752Z,3.17
2022-12-20T01:57:14.514Z,3.85
2022-12-20T01:59:46.312Z,5.60
2022-12-20T02:02:13.716Z,3.45
2022-12-20T02:04:41.282Z,2.90
2022-12-20T02:07:09.832Z,2.50
2022-12-20T02:09:38.702Z,2.30
2022-12-20T02:12:17.559Z,2.40
2022-12-20T02:14:59.509Z,1.85
2022-12-20T02:18:00.511Z,1.83
2022-12-20T02:20:35.998Z,2.13
2022-12-20T02:23:17.776Z,2.10
2022-12-20T02:26:04.777Z,2.23
2022-12-20T02:28:49.641Z,2.05
2022-12-20T02:31:19.694Z,1.70
2022-12-20T02:33:48.731Z,1.85
2022-12-20T02:36:18.092Z,1.75
2022-12-20T02:38:46.245Z,1.55
2022-12-20T02:41:27.227Z,1.77
2022-12-20T02:44:18.337Z,1.75
2022-12-20T02:46:46.145Z,1.70
2022-12-20T02:49:16.835Z,1.35
2022-12-20T02:51:47.134Z,1.70
2022-12-20T02:54:15.266Z,1.52
2022-12-20T02:56:47.571Z,2.10
2022-12-20T02:59:21.084Z,2.00
2022-12-20T03:01:57.758Z,1.65
2022-12-20T03:04:34.181Z,1.48
2022-12-20T03:07:01.986Z,1.42
2022-12-20T03:09:32.158Z,1.65
2022-12-20T03:11:59.338Z,1.60
2022-12-20T03:14:26.265Z,1.80
2022-12-20T03:16:55.269Z,1.67
2022-12-20T03:19:22.431Z,1.70
2022-12-20T03:21:49.117Z,2.10
2022-12-20T03:24:16.121Z,1.67
2022-12-20T03:26:43.506Z,1.90
2022-12-20T03:29:10.444Z,1.88
2022-12-20T03:31:37.919Z,1.75
2022-12-20T03:34:05.488Z,2.10
2022-12-20T03:36:32.824Z,1.92
2022-12-20T03:39:02.298Z,2.50
2022-12-20T03:41:32.829Z,2.10
2022-12-20T03:43:59.970Z,1.95
2022-12-20T03:46:27.997Z,1.85
2022-12-20T03:48:55.211Z,2.30
2022-12-20T03:51:22.827Z,1.95
2022-12-20T03:53:49.962Z,2.30
2022-12-20T03:56:17.181Z,2.45
2022-12-20T03:58:44.126Z,1.60
2022-12-20T04:01:22.865Z,2.13
2022-12-20T04:03:51.043Z,2.00
2022-12-20T04:06:18.995Z,1.95
2022-12-20T04:08:46.325Z,2.03
2022-12-20T04:11:20.446Z,2.10
2022-12-20T04:13:54.103Z,3.67
2022-12-20T04:16:27.775Z,4.93
2022-12-20T04:18:55.551Z,4.38
2022-12-20T04:21:32.546Z,2.95
2022-12-20T04:24:01.232Z,1.50
2022-12-20T04:26:46.313Z,1.70
2022-12-20T04:29:13.942Z,1.88
2022-12-20T04:31:42.317Z,2.28
2022-12-20T04:34:09.667Z,2.42
2022-12-20T04:36:36.813Z,2.08
2022-12-20T04:39:07.304Z,1.55
2022-12-20T04:41:43.701Z,1.40
2022-12-20T04:44:13.140Z,1.30
2022-12-20T04:46:39.926Z,1.40
2022-12-20T04:49:11.331Z,1.73
2022-12-20T04:51:40.434Z,1.45
2022-12-20T04:54:07.175Z,1.38
2022-12-20T04:56:45.906Z,1.67
2022-12-20T04:59:17.429Z,1.70
2022-12-20T05:01:46.484Z,2.15
2022-12-20T05:04:19.568Z,2.70
2022-12-20T05:06:46.249Z,2.47
2022-12-20T05:09:14.201Z,2.00
2022-12-20T05:11:40.936Z,1.85
2022-12-20T05:14:08.732Z,2.28
2022-12-20T05:16:35.628Z,2.50
2022-12-20T05:19:03.263Z,2.20
2022-12-20T05:21:50.883Z,2.60
2022-12-20T05:24:36.155Z,2.00
2022-12-20T05:27:17.090Z,2.28
2022-12-20T05:29:44.100Z,2.03
2022-12-20T05:32:10.795Z,2.05
2022-12-20T05:34:40.740Z,2.45
2022-12-20T05:37:07.535Z,2.97
2022-12-20T05:39:36.835Z,3.35
2022-12-20T05:44:36.771Z,5.10
2022-12-20T05:47:03.604Z,5.30
2022-12-20T05:49:33.126Z,5.78
2022-12-20T05:52:02.416Z,5.50
2022-12-20T05:54:29.578Z,11.68
2022-12-20T05:57:10.256Z,7.95
2022-12-20T05:59:39.516Z,10.23
2022-12-20T06:02:10.787Z,20.27
2022-12-20T06:04:38.834Z,15.52
2022-12-20T06:07:13.394Z,11.10
2022-12-20T06:09:42.325Z,9.73
2022-12-20T06:12:13.930Z,10.25
2022-12-20T06:14:40.847Z,4.88
2022-12-20T06:17:07.841Z,3.85
2022-12-20T06:19:34.681Z,3.65
2022-12-20T06:22:03.419Z,3.95
2022-12-20T06:24:47.622Z,3.60
2022-12-20T06:27:15.505Z,4.40
2022-12-20T06:29:49.351Z,7.72
2022-12-20T06:32:16.467Z,11.98
2022-12-20T06:34:43.846Z,10.15
2022-12-20T06:37:11.897Z,8.20
2022-12-20T06:39:39.175Z,7.65
2022-12-20T06:42:08.221Z,7.72
2022-12-20T06:44:36.144Z,8.43
2022-12-20T06:47:03.012Z,8.05
2022-12-20T06:49:30.379Z,9.57
2022-12-20T06:51:57.658Z,9.20
2022-12-20T06:54:42.897Z,10.18
2022-12-20T06:57:09.782Z,8.95
2022-12-20T06:59:37.810Z,8.60
2022-12-20T07:02:05.498Z,8.55
2022-12-20T07:04:34.152Z,9.35
2022-12-20T07:07:00.951Z,9.02
2022-12-20T07:09:27.606Z,9.60
2022-12-20T07:11:54.308Z,10.48
2022-12-20T07:14:21.145Z,11.50
2022-12-20T07:16:48.027Z,11.20
2022-12-20T07:19:15.495Z,10.80
2022-12-20T07:21:43.044Z,10.40
2022-12-20T07:24:10.581Z,8.00
2022-12-20T07:26:37.289Z,6.38
2022-12-20T07:29:04.178Z,6.80
2022-12-20T07:31:31.015Z,8.10
2022-12-20T07:33:57.744Z,9.50
2022-12-20T07:36:24.510Z,15.23
2022-12-20T07:38:51.643Z,14.85
2022-12-20T07:41:21.711Z,14.95
2022-12-20T07:43:48.412Z,16.33
2022-12-20T07:46:15.846Z,14.98
2022-12-20T07:48:42.930Z,13.70
2022-12-20T07:51:18.004Z,13.93
2022-12-20T07:53:52.920Z,13.63
2022-12-20T07:56:22.336Z,7.82
2022-12-20T07:58:53.974Z,8.75
2022-12-20T08:01:21.434Z,9.83
2022-12-20T08:03:53.250Z,8.93
2022-12-20T08:06:20.610Z,9.25
2022-12-20T08:08:51.273Z,11.05
2022-12-20T08:11:19.616Z,10.23
2022-12-20T08:13:48.805Z,10.20
2022-12-20T08:16:18.290Z,10.60
2022-12-20T08:18:45.009Z,14.05
2022-12-20T08:21:13.057Z,13.88
2022-12-20T08:23:39.822Z,14.68
2022-12-20T08:26:06.955Z,13.38
2022-12-20T08:28:34.267Z,9.82
2022-12-20T08:31:06.737Z,9.38
2022-12-20T08:36:04.447Z,9.73
2022-12-20T08:38:32.115Z,19.05
2022-12-20T08:41:07.653Z,32.60
2022-12-20T08:43:34.989Z,16.63
2022-12-20T08:46:02.116Z,26.10
2022-12-20T08:48:29.499Z,18.60
2022-12-20T08:50:58.043Z,12.25
2022-12-20T08:53:25.167Z,11.00
2022-12-20T08:55:52.816Z,13.77
2022-12-20T08:58:20.712Z,13.55
2022-12-20T09:00:47.643Z,5.65
2022-12-20T09:03:15.332Z,7.53
2022-12-20T09:05:47.245Z,9.60
2022-12-20T09:08:15.468Z,10.35
2022-12-20T09:10:42.578Z,10.38
2022-12-20T09:13:10.526Z,10.57
2022-12-20T09:15:37.978Z,9.88
2022-12-20T09:18:05.658Z,11.63
2022-12-20T09:20:32.854Z,10.45
2022-12-20T09:23:00.589Z,13.52
2022-12-20T09:25:27.974Z,12.98
2022-12-20T09:27:56.480Z,11.80
2022-12-20T09:30:23.697Z,12.95
2022-12-20T09:32:50.985Z,13.70
2022-12-20T09:35:22.796Z,14.98
2022-12-20T09:37:50.050Z,14.60
2022-12-20T09:40:20.948Z,16.55
2022-12-20T09:42:49.586Z,17.60
2022-12-20T09:45:29.262Z,20.67
2022-12-20T09:47:56.085Z,16.85
2022-12-20T09:50:43.745Z,13.32
2022-12-20T09:53:31.256Z,13.15
2022-12-20T09:56:05.840Z,13.13
2022-12-20T09:59:05.421Z,12.95
2022-12-20T10:01:39.534Z,13.40
2022-12-20T10:04:23.909Z,19.55
2022-12-20T10:07:29.606Z,13.50
2022-12-20T10:10:41.806Z,15.45
2022-12-20T10:13:29.936Z,13.73
2022-12-20T10:16:08.594Z,14.00
2022-12-20T10:18:46.905Z,13.48
2022-12-20T10:21:46.280Z,8.32
2022-12-20T10:24:19.887Z,4.93
2022-12-20T10:26:50.740Z,5.50
2022-12-20T10:29:18.803Z,3.65
2022-12-20T10:31:45.525Z,2.92
2022-12-20T10:34:12.246Z,3.28
2022-12-20T10:36:38.977Z,4.80
2022-12-20T10:39:09.898Z,4.82
2022-12-20T10:41:42.849Z,4.90
2022-12-20T10:44:22.709Z,4.95
2022-12-20T10:46:56.812Z,5.57
2022-12-20T10:49:32.219Z,4.57
2022-12-20T10:52:09.441Z,5.57
2022-12-20T10:54:38.578Z,5.72
2022-12-20T10:57:25.156Z,6.65
2022-12-20T10:59:54.988Z,7.68
2022-12-20T11:02:41.591Z,12.90
2022-12-20T11:05:12.246Z,7.68
2022-12-20T11:10:45.805Z,5.53
2022-12-20T11:13:26.448Z,7.63
2022-12-20T11:15:57.302Z,8.15
2022-12-20T11:18:44.865Z,11.35
2022-12-20T11:21:38.284Z,15.02
2022-12-20T11:24:37.707Z,10.02
2022-12-20T11:27:15.602Z,9.05
2022-12-20T11:30:04.218Z,12.13
2022-12-20T11:32:52.456Z,14.93
2022-12-20T11:35:22.151Z,10.68
2022-12-20T11:38:36.049Z,10.57
2022-12-20T11:41:33.919Z,10.20
2022-12-20T11:44:36.230Z,7.68
2022-12-20T11:47:36.298Z,4.90
2022-12-20T11:50:54.046Z,5.97
2022-12-20T11:53:53.851Z,4.68
2022-12-20T11:56:44.698Z,9.98
2022-12-20T11:59:32.543Z,20.77
2022-12-20T12:02:12.499Z,17.05
2022-12-20T12:04:45.245Z,10.52
2022-12-20T12:09:56.597Z,5.13
2022-12-20T12:12:42.483Z,6.55
2022-12-20T12:15:20.725Z,6.88
2022-12-20T12:18:01.032Z,7.45
2022-12-20T12:21:08.303Z,14.45
2022-12-20T12:23:49.461Z,10.38
2022-12-20T12:26:24.874Z,9.23
2022-12-20T12:28:55.871Z,7.47
2022-12-20T12:31:45.980Z,17.38
2022-12-20T12:34:40.579Z,11.13
2022-12-20T12:37:29.349Z,12.40
2022-12-20T12:40:34.111Z,9.13
2022-12-20T12:43:31.465Z,4.15
2022-12-20T12:46:08.406Z,5.00
2022-12-20T12:48:43.543Z,4.82
2022-12-20T12:53:42.016Z,7.90
2022-12-20T12:56:44.558Z,7.32
2022-12-20T12:59:12.588Z,17.60
2022-12-20T13:01:50.193Z,17.60
2022-12-20T13:04:19.734Z,17.02
2022-12-20T13:06:49.810Z,12.20
2022-12-20T13:09:37.993Z,9.50
2022-12-20T13:12:47.355Z,10.18
2022-12-20T13:15:20.149Z,11.80
2022-12-20T13:17:54.447Z,10.25
2022-12-20T13:20:35.701Z,11.02
2022-12-20T13:23:05.503Z,10.80
2022-12-20T13:25:32.461Z,12.40
2022-12-20T13:28:24.055Z,12.55
2022-12-20T13:30:53.900Z,11.02
2022-12-20T13:33:24.023Z,10.30
2022-12-20T13:36:03.514Z,7.82
2022-12-20T13:38:45.527Z,7.75
2022-12-20T13:41:29.585Z,6.53
2022-12-20T13:44:16.327Z,6.40
2022-12-20T13:47:04.610Z,10.65
2022-12-20T13:49:43.698Z,11.02
2022-12-20T13:52:25.166Z,9.75
2022-12-20T13:54:55.990Z,11.38
2022-12-20T13:57:29.729Z,13.93
2022-12-20T14:00:05.727Z,11.45
2022-12-20T14:02:42.399Z,11.52
2022-12-20T14:05:32.198Z,16.42
2022-12-20T14:08:05.391Z,16.45
2022-12-20T14:10:33.510Z,12.38
2022-12-20T14:13:00.281Z,16.17
2022-12-20T14:15:26.919Z,9.18
2022-12-20T14:17:53.720Z,7.15
2022-12-20T14:20:23.519Z,27.52
2022-12-20T14:23:05.636Z,15.80
2022-12-20T14:25:46.791Z,12.52
2022-12-20T14:28:29.790Z,8.82
2022-12-20T14:30:58.794Z,17.58
2022-12-20T14:33:35.300Z,11.00
2022-12-20T14:36:20.937Z,7.20
2022-12-20T14:38:52.187Z,9.68
2022-12-20T14:41:38.996Z,10.80
2022-12-20T14:44:21.523Z,9.55
2022-12-20T14:46:53.324Z,30.23
2022-12-20T14:49:32.675Z,106.97
2022-12-20T14:52:11.681Z,77.65
2022-12-20T14:55:07.857Z,44.00
2022-12-20T14:57:35.274Z,60.88
2022-12-20T15:00:19.022Z,18.80
2022-12-20T15:02:49.491Z,11.85
2022-12-20T15:05:34.745Z,8.05
2022-12-20T15:08:32.664Z,2.97
2022-12-20T15:11:08.554Z,4.50
2022-12-20T15:13:42.010Z,14.75
2022-12-20T15:16:17.293Z,10.73
2022-12-20T15:18:45.260Z,6.95
2022-12-20T15:21:37.384Z,7.47
2022-12-20T15:24:09.732Z,8.68
2022-12-20T15:26:37.036Z,10.50
2022-12-20T15:29:04.513Z,7.28
2022-12-20T15:31:34.793Z,7.72
2022-12-20T15:34:05.031Z,8.05
2022-12-20T15:36:33.498Z,10.05
2022-12-20T15:39:15.843Z,10.18
2022-12-20T15:41:48.717Z,8.18
2022-12-20T15:44:18.964Z,8.55
2022-12-20T15:46:45.772Z,4.93
2022-12-20T15:49:23.860Z,3.80
2022-12-20T15:51:52.314Z,5.03
2022-12-20T15:54:26.493Z,6.20
2022-12-20T15:56:58.826Z,9.63
2022-12-20T15:59:58.407Z,10.18
2022-12-20T16:02:27.589Z,18.92
2022-12-20T16:04:55.353Z,23.55
2022-12-20T16:07:22.746Z,31.45
2022-12-20T16:09:49.579Z,28.25
2022-12-20T16:12:19.083Z,24.48
2022-12-20T16:14:45.893Z,20.67
2022-12-20T16:17:14.351Z,13.75
2022-12-20T16:19:42.264Z,13.40
2022-12-20T16:22:16.507Z,16.02
2022-12-20T16:24:43.524Z,14.80
2022-12-20T16:27:10.418Z,11.15
2022-12-20T16:29:37.080Z,12.10
2022-12-20T16:32:07.975Z,10.02
2022-12-20T16:34:34.698Z,10.88
2022-12-20T16:37:01.640Z,11.43
2022-12-20T16:39:28.453Z,10.00
2022-12-20T16:41:55.156Z,12.57
2022-12-20T16:44:22.908Z,12.05
2022-12-20T16:46:49.641Z,11.65
2022-12-20T16:49:20.350Z,13.10
2022-12-20T16:51:48.807Z,18.75
2022-12-20T16:54:20.552Z,24.17
2022-12-20T16:56:51.897Z,29.05
2022-12-20T16:59:21.663Z,17.75
2022-12-20T17:01:51.548Z,17.27
2022-12-20T17:04:19.340Z,12.82
2022-12-20T17:06:46.671Z,13.95
2022-12-20T17:09:13.660Z,14.07
2022-12-20T17:11:40.312Z,14.20
2022-12-20T17:14:12.281Z,14.48
2022-12-20T17:19:06.670Z,13.43
2022-12-20T17:24:28.783Z,14.00
2022-12-20T17:26:55.629Z,14.77
2022-12-20T17:29:22.308Z,15.60
2022-12-20T17:31:49.935Z,16.35
2022-12-20T17:34:20.981Z,24.35
2022-12-20T17:36:49.315Z,20.08
2022-12-20T17:39:16.408Z,16.92
2022-12-20T17:41:44.052Z,17.08
2022-12-20T17:44:18.912Z,17.90
2022-12-20T17:46:45.889Z,18.23
2022-12-20T17:49:12.949Z,20.48
2022-12-20T17:51:39.822Z,22.33
2022-12-20T17:54:06.656Z,19.83
2022-12-20T17:56:35.897Z,21.52
2022-12-20T17:59:06.996Z,25.58
2022-12-20T18:01:35.385Z,20.88
2022-12-20T18:04:06.737Z,24.83
2022-12-20T18:06:37.473Z,24.55
2022-12-20T18:09:08.083Z,27.15
2022-12-20T18:11:35.030Z,24.67
2022-12-20T18:14:03.521Z,22.98
2022-12-20T18:16:32.302Z,24.40
2022-12-20T18:18:58.997Z,23.95
2022-12-20T18:21:27.180Z,22.27
2022-12-20T18:23:54.814Z,24.80
2022-12-20T18:26:30.709Z,24.70
2022-12-20T18:29:00.321Z,36.60
2022-12-20T18:31:29.176Z,31.35
2022-12-20T18:33:58.240Z,27.90
2022-12-20T18:36:34.603Z,33.55
2022-12-20T18:39:04.485Z,28.35
2022-12-20T18:41:31.581Z,30.05
2022-12-20T18:44:03.114Z,28.80
2022-12-20T18:46:29.919Z,28.33
2022-12-20T18:48:58.382Z,27.60
2022-12-20T18:51:38.969Z,26.38
2022-12-20T18:54:07.813Z,17.55
2022-12-20T18:56:36.833Z,16.85
2022-12-20T18:59:10.965Z,11.88
2022-12-20T19:01:39.922Z,10.52
2022-12-20T19:04:07.735Z,12.38
2022-12-20T19:06:34.954Z,20.45
2022-12-20T19:09:03.575Z,18.85
2022-12-20T19:11:30.304Z,21.98
2022-12-20T19:13:57.081Z,17.23
2022-12-20T19:16:26.308Z,11.75
2022-12-20T19:18:53.011Z,14.02
2022-12-20T19:21:24.861Z,15.90
2022-12-20T19:23:53.705Z,16.45
2022-12-20T19:26:22.001Z,14.52
2022-12-20T19:28:48.977Z,15.10
2022-12-20T19:31:30.145Z,18.00
2022-12-20T19:34:01.121Z,18.27
2022-12-20T19:36:35.611Z,16.00
2022-12-20T19:39:05.606Z,14.02
2022-12-20T19:41:34.414Z,10.75
2022-12-20T19:44:01.766Z,8.98
2022-12-20T19:46:30.022Z,9.75
2022-12-20T19:48:58.926Z,18.80
2022-12-20T19:51:27.578Z,22.88
2022-12-20T19:53:55.620Z,25.80
2022-12-20T19:56:33.814Z,17.92
2022-12-20T19:59:00.915Z,13.60
2022-12-20T20:01:28.249Z,12.43
2022-12-20T20:03:56.825Z,14.95
2022-12-20T20:06:24.054Z,16.15
2022-12-20T20:08:50.996Z,16.90
2022-12-20T20:11:19.211Z,15.30
2022-12-20T20:13:46.597Z,14.10
2022-12-20T20:16:18.423Z,18.23
2022-12-20T20:18:49.128Z,20.08
2022-12-20T20:21:20.944Z,21.98
2022-12-20T20:23:48.267Z,21.23
2022-12-20T20:26:18.393Z,21.20
2022-12-20T20:28:45.740Z,21.13
2022-12-20T20:31:14.792Z,20.80
2022-12-20T20:33:42.560Z,16.27
2022-12-20T20:36:13.178Z,16.23
2022-12-20T20:38:40.139Z,12.05
2022-12-20T20:41:07.198Z,13.55
2022-12-20T20:43:36.752Z,13.73
2022-12-20T20:46:06.726Z,14.75
2022-12-20T20:48:34.022Z,13.55
2022-12-20T20:51:00.726Z,10.48
2022-12-20T20:53:32.979Z,10.05
2022-12-20T20:56:01.641Z,11.07
2022-12-20T20:58:28.516Z,10.60
2022-12-20T21:01:00.307Z,11.35
2022-12-20T21:03:28.549Z,11.57
2022-12-20T21:08:42.839Z,10.52
2022-12-20T21:11:09.967Z,9.13
2022-12-20T21:13:36.934Z,10.13
2022-12-20T21:16:09.389Z,9.50
2022-12-20T21:21:13.367Z,8.93
2022-12-20T21:23:45.064Z,10.75
2022-12-20T21:26:12.350Z,10.00
2022-12-20T21:28:43.787Z,9.73
2022-12-20T21:31:12.816Z,10.00
2022-12-20T21:33:40.627Z,8.93
2022-12-20T21:36:13.789Z,7.50
2022-12-20T21:38:40.920Z,10.43
2022-12-20T21:41:10.757Z,11.65
2022-12-20T21:43:37.787Z,12.93
2022-12-20T21:46:04.668Z,10.57
2022-12-20T21:48:31.432Z,9.25
2022-12-20T21:51:03.480Z,9.05
2022-12-20T21:53:31.395Z,8.20
2022-12-20T21:55:59.193Z,10.38
2022-12-20T21:58:26.735Z,7.50
2022-12-20T22:00:55.340Z,8.13
2022-12-20T22:03:23.486Z,7.32
2022-12-20T22:05:52.971Z,6.65
2022-12-20T22:08:20.797Z,5.15
2022-12-20T22:10:49.660Z,4.60
2022-12-20T22:13:16.543Z,4.95
2022-12-20T22:15:43.307Z,6.03
2022-12-20T22:18:10.084Z,4.90
2022-12-20T22:20:36.871Z,4.57
2022-12-20T22:23:04.248Z,4.80
2022-12-20T22:25:31.600Z,4.63
2022-12-20T22:27:58.679Z,4.55
2022-12-20T22:30:25.428Z,3.53
2022-12-20T22:32:52.098Z,3.35
2022-12-20T22:35:22.668Z,3.85
2022-12-20T22:37:52.771Z,3.65
2022-12-20T22:40:19.686Z,3.47
2022-12-20T22:42:46.384Z,4.13
2022-12-20T22:45:13.085Z,4.38
2022-12-20T22:47:42.957Z,3.80
2022-12-20T22:50:10.527Z,3.85
2022-12-20T22:52:37.213Z,4.32
2022-12-20T22:55:04.159Z,4.80
2022-12-20T22:57:32.721Z,5.00
2022-12-20T22:59:59.488Z,4.72
2022-12-20T23:02:27.334Z,5.43
2022-12-20T23:04:54.306Z,6.72
2022-12-20T23:07:21.628Z,7.93
2022-12-20T23:09:48.760Z,6.63
2022-12-20T23:12:34.280Z,7.22
2022-12-20T23:15:06.720Z,5.68
2022-12-20T23:17:33.646Z,4.82
2022-12-20T23:20:18.903Z,5.28
2022-12-20T23:22:45.811Z,6.22
2022-12-20T23:25:16.071Z,5.47
2022-12-20T23:27:44.306Z,4.68
2022-12-20T23:30:14.108Z,5.05
2022-12-20T23:32:47.524Z,5.85
2022-12-20T23:35:16.432Z,5.28
2022-12-20T23:37:43.290Z,4.70
2022-12-20T23:40:11.107Z,5.28
2022-12-20T23:42:38.415Z,4.72
2022-12-20T23:45:05.585Z,4.60
2022-12-20T23:47:32.798Z,4.50
2022-12-20T23:49:59.515Z,4.55
2022-12-20T23:52:26.218Z,5.05
2022-12-20T23:54:52.884Z,4.85
2022-12-20T23:57:19.627Z,5.03
2022-12-20T23:59:46.295Z,5.40
